createdAt,value
2022-08-20T00:01:02.591Z,30.93
2022-08-20T00:02:41.357Z,32.30
2022-08-20T00:04:15.586Z,34.03
2022-08-20T00:05:52.705Z,35.17
2022-08-20T00:07:31.001Z,34.63
2022-08-20T00:09:05.613Z,36.93
2022-08-20T00:10:40.865Z,36.87
2022-08-20T00:12:17.169Z,32.27
2022-08-20T00:13:53.149Z,33.50
2022-08-20T00:15:30.853Z,34.03
2022-08-20T00:17:04.723Z,32.57
2022-08-20T00:18:38.229Z,32.47
2022-08-20T00:20:14.187Z,35.57
2022-08-20T00:21:47.292Z,35.83
2022-08-20T00:23:23.525Z,33.43
2022-08-20T00:24:58.014Z,33.37
2022-08-20T00:26:31.381Z,33.43
2022-08-20T00:28:04.136Z,35.73
2022-08-20T00:29:37.269Z,33.77
2022-08-20T00:31:13.223Z,33.93
2022-08-20T00:32:49.036Z,36.50
2022-08-20T00:34:22.241Z,36.13
2022-08-20T00:35:57.397Z,34.73
2022-08-20T00:37:29.542Z,32.43
2022-08-20T00:39:03.134Z,34.50
2022-08-20T00:40:42.036Z,40.23
2022-08-20T00:42:15.230Z,34.93
2022-08-20T00:43:50.467Z,36.77
2022-08-20T00:45:24.140Z,37.07
2022-08-20T00:46:57.270Z,36.80
2022-08-20T00:48:33.601Z,35.50
2022-08-20T00:50:07.899Z,34.83
2022-08-20T00:51:44.235Z,37.90
2022-08-20T00:53:19.293Z,37.47
2022-08-20T00:54:56.420Z,38.57
2022-08-20T00:56:33.382Z,41.57
2022-08-20T00:58:10.099Z,39.63
2022-08-20T00:59:43.701Z,42.20
2022-08-20T01:01:16.847Z,39.13
2022-08-20T01:02:50.900Z,37.30
2022-08-20T01:04:24.919Z,42.10
2022-08-20T01:05:58.143Z,39.97
2022-08-20T01:07:34.782Z,42.53
2022-08-20T01:09:07.521Z,43.50
2022-08-20T01:10:44.683Z,41.30
2022-08-20T01:12:19.957Z,42.40
2022-08-20T01:13:53.169Z,43.87
2022-08-20T01:15:30.950Z,41.17
2022-08-20T01:17:07.629Z,42.13
2022-08-20T01:18:42.123Z,41.40
2022-08-20T01:20:18.715Z,40.23
2022-08-20T01:21:52.621Z,41.00
2022-08-20T01:23:34.736Z,41.50
2022-08-20T01:25:13.075Z,40.60
2022-08-20T01:26:49.186Z,41.87
2022-08-20T01:28:26.118Z,44.70
2022-08-20T01:30:00.624Z,46.13
2022-08-20T01:31:41.926Z,42.37
2022-08-20T01:33:14.060Z,46.67
2022-08-20T01:34:47.308Z,44.57
2022-08-20T01:36:26.556Z,48.13
2022-08-20T01:37:59.731Z,44.63
2022-08-20T01:39:35.627Z,46.63
2022-08-20T01:41:28.293Z,47.63
2022-08-20T01:43:09.951Z,47.00
2022-08-20T01:44:47.039Z,52.70
2022-08-20T01:46:19.259Z,49.17
2022-08-20T01:47:53.072Z,50.33
2022-08-20T01:49:29.388Z,54.57
2022-08-20T01:51:07.290Z,51.37
2022-08-20T01:52:44.600Z,55.20
2022-08-20T01:54:18.090Z,53.93
2022-08-20T01:55:50.330Z,54.03
2022-08-20T01:57:26.762Z,53.67
2022-08-20T01:59:06.360Z,55.40
2022-08-20T02:00:38.567Z,56.87
2022-08-20T02:02:13.777Z,55.17
2022-08-20T02:03:45.944Z,60.03
2022-08-20T02:05:19.815Z,58.47
2022-08-20T02:06:57.877Z,57.53
2022-08-20T02:08:33.247Z,58.40
2022-08-20T02:10:07.697Z,57.97
2022-08-20T02:11:41.772Z,61.80
2022-08-20T02:13:15.241Z,63.03
2022-08-20T02:14:52.194Z,58.30
2022-08-20T02:16:29.320Z,61.90
2022-08-20T02:18:04.649Z,63.40
2022-08-20T02:19:43.306Z,64.67
2022-08-20T02:21:16.709Z,62.63
2022-08-20T02:22:53.020Z,66.33
2022-08-20T02:24:28.371Z,73.77
2022-08-20T02:26:01.481Z,67.53
2022-08-20T02:27:34.629Z,65.87
2022-08-20T02:29:09.908Z,67.57
2022-08-20T02:30:46.961Z,62.43
2022-08-20T02:32:32.537Z,66.40
2022-08-20T02:34:14.725Z,61.70
2022-08-20T02:35:57.509Z,65.40
2022-08-20T02:37:30.835Z,63.67
2022-08-20T02:39:05.081Z,65.30
2022-08-20T02:40:41.173Z,67.70
2022-08-20T02:42:14.371Z,69.70
2022-08-20T02:43:47.514Z,68.17
2022-08-20T02:45:22.549Z,70.10
2022-08-20T02:46:57.160Z,66.63
2022-08-20T02:48:31.310Z,71.33
2022-08-20T02:50:07.984Z,76.90
2022-08-20T02:51:41.217Z,76.47
2022-08-20T02:53:14.435Z,71.43
2022-08-20T02:54:48.860Z,73.87
2022-08-20T02:56:22.045Z,76.90
2022-08-20T02:57:55.247Z,70.90
2022-08-20T02:59:31.703Z,71.93
2022-08-20T03:01:07.761Z,78.30
2022-08-20T03:02:41.504Z,72.60
2022-08-20T03:04:14.616Z,75.23
2022-08-20T03:05:47.749Z,73.80
2022-08-20T03:07:21.152Z,74.90
2022-08-20T03:08:54.627Z,72.13
2022-08-20T03:10:29.555Z,74.80
2022-08-20T03:12:02.880Z,74.00
2022-08-20T03:13:37.486Z,71.23
2022-08-20T03:15:17.612Z,71.07
2022-08-20T03:16:51.059Z,77.33
2022-08-20T03:18:28.219Z,73.13
2022-08-20T03:20:01.383Z,75.03
2022-08-20T03:21:35.269Z,77.83
2022-08-20T03:23:07.571Z,76.50
2022-08-20T03:24:40.901Z,76.53
2022-08-20T03:26:16.427Z,86.10
2022-08-20T03:27:54.427Z,79.90
2022-08-20T03:29:27.907Z,74.40
2022-08-20T03:31:00.250Z,78.07
2022-08-20T03:32:33.508Z,72.77
2022-08-20T03:34:08.214Z,72.97
2022-08-20T03:35:41.356Z,70.53
2022-08-20T03:37:14.889Z,65.53
2022-08-20T03:38:48.001Z,72.27
2022-08-20T03:40:23.105Z,69.50
2022-08-20T03:41:56.287Z,74.93
2022-08-20T03:43:29.562Z,79.97
2022-08-20T03:45:02.651Z,72.80
2022-08-20T03:46:34.978Z,76.47
2022-08-20T03:48:10.289Z,80.90
2022-08-20T03:49:44.862Z,75.93
2022-08-20T03:51:17.997Z,76.47
2022-08-20T03:52:51.180Z,73.57
2022-08-20T03:54:23.382Z,73.43
2022-08-20T03:56:02.096Z,70.40
2022-08-20T03:57:36.350Z,72.00
2022-08-20T03:59:09.757Z,69.97
2022-08-20T04:00:46.268Z,67.87
2022-08-20T04:02:18.609Z,64.40
2022-08-20T04:03:55.087Z,63.40
2022-08-20T04:05:33.449Z,64.33
2022-08-20T04:07:11.502Z,60.60
2022-08-20T04:08:44.700Z,59.90
2022-08-20T04:10:17.948Z,58.97
2022-08-20T04:11:51.122Z,62.30
2022-08-20T04:13:24.983Z,54.10
2022-08-20T04:14:58.487Z,53.23
2022-08-20T04:16:33.479Z,52.07
2022-08-20T04:18:07.926Z,49.83
2022-08-20T04:19:42.026Z,49.37
2022-08-20T04:21:15.518Z,43.23
2022-08-20T04:22:50.809Z,44.07
2022-08-20T04:24:33.184Z,43.73
2022-08-20T04:26:05.328Z,44.17
2022-08-20T04:27:39.589Z,47.97
2022-08-20T04:29:12.948Z,43.67
2022-08-20T04:30:51.709Z,42.50
2022-08-20T04:32:25.160Z,38.50
2022-08-20T04:34:00.143Z,37.10
2022-08-20T04:35:33.388Z,34.67
2022-08-20T04:37:16.810Z,32.60
2022-08-20T04:38:51.142Z,36.03
2022-08-20T04:40:42.163Z,33.30
2022-08-20T04:42:15.237Z,30.13
2022-08-20T04:43:48.384Z,28.83
2022-08-20T04:45:22.259Z,28.60
2022-08-20T04:46:55.684Z,29.23
2022-08-20T04:48:30.789Z,25.60
2022-08-20T04:50:09.300Z,26.90
2022-08-20T04:51:43.787Z,29.13
2022-08-20T04:53:25.289Z,21.77
2022-08-20T04:54:58.897Z,21.63
2022-08-20T04:56:38.481Z,18.80
2022-08-20T04:58:14.515Z,22.50
2022-08-20T04:59:47.854Z,17.03
2022-08-20T05:01:20.251Z,14.93
2022-08-20T05:02:53.680Z,11.90
2022-08-20T05:04:27.580Z,13.67
2022-08-20T05:06:01.630Z,12.00
2022-08-20T05:07:40.325Z,11.97
2022-08-20T05:09:14.841Z,11.00
2022-08-20T05:10:48.507Z,10.47
2022-08-20T05:12:21.647Z,10.90
2022-08-20T05:13:54.761Z,11.40
2022-08-20T05:15:28.062Z,10.53
2022-08-20T05:17:05.538Z,10.00
2022-08-20T05:18:38.795Z,9.20
2022-08-20T05:20:18.249Z,8.17
2022-08-20T05:21:52.473Z,8.27
2022-08-20T05:23:25.652Z,8.33
2022-08-20T05:25:01.757Z,8.77
2022-08-20T05:26:35.015Z,6.40
2022-08-20T05:28:12.310Z,7.60
2022-08-20T05:29:45.456Z,8.27
2022-08-20T05:31:21.669Z,8.47
2022-08-20T05:32:53.984Z,8.43
2022-08-20T05:34:27.121Z,8.70
2022-08-20T05:36:00.370Z,10.07
2022-08-20T05:37:33.684Z,12.77
2022-08-20T05:39:07.181Z,12.80
2022-08-20T05:40:42.791Z,11.87
2022-08-20T05:42:16.617Z,13.67
2022-08-20T05:43:51.633Z,13.53
2022-08-20T05:45:24.801Z,13.90
2022-08-20T05:46:57.921Z,15.60
2022-08-20T05:48:31.066Z,17.20
2022-08-20T05:50:05.721Z,15.83
2022-08-20T05:51:39.094Z,16.47
2022-08-20T05:53:12.938Z,15.03
2022-08-20T05:54:46.019Z,16.20
2022-08-20T05:56:21.645Z,16.80
2022-08-20T05:58:00.465Z,16.13
2022-08-20T05:59:34.786Z,15.87
2022-08-20T06:01:08.025Z,16.27
2022-08-20T06:03:04.857Z,16.77
2022-08-20T06:04:36.953Z,15.23
2022-08-20T06:06:17.962Z,14.03
2022-08-20T06:08:07.716Z,13.77
2022-08-20T06:09:44.310Z,15.40
2022-08-20T06:11:18.889Z,12.80
2022-08-20T06:12:53.413Z,13.97
2022-08-20T06:14:26.844Z,17.20
2022-08-20T06:15:59.992Z,13.90
2022-08-20T06:17:39.318Z,14.90
2022-08-20T06:19:13.281Z,15.43
2022-08-20T06:20:47.044Z,15.10
2022-08-20T06:22:23.707Z,16.27
2022-08-20T06:23:59.745Z,17.33
2022-08-20T06:25:37.958Z,18.60
2022-08-20T06:27:15.450Z,23.43
2022-08-20T06:28:50.009Z,22.63
2022-08-20T06:30:27.565Z,24.77
2022-08-20T06:32:02.057Z,26.83
2022-08-20T06:33:35.188Z,26.67
2022-08-20T06:35:10.587Z,27.90
2022-08-20T06:36:46.707Z,30.50
2022-08-20T06:38:20.218Z,32.50
2022-08-20T06:39:53.174Z,33.27
2022-08-20T06:41:35.792Z,36.50
2022-08-20T06:43:09.922Z,38.10
2022-08-20T06:44:49.990Z,38.53
2022-08-20T06:46:23.450Z,44.80
2022-08-20T06:47:59.223Z,42.47
2022-08-20T06:49:35.262Z,39.40
2022-08-20T06:51:09.807Z,40.60
2022-08-20T06:53:03.349Z,39.70
2022-08-20T06:54:35.393Z,31.27
2022-08-20T06:56:08.616Z,29.13
2022-08-20T06:57:42.724Z,29.43
2022-08-20T06:59:15.972Z,31.53
2022-08-20T07:00:50.878Z,33.27
2022-08-20T07:02:29.239Z,33.73
2022-08-20T07:04:05.583Z,37.03
2022-08-20T07:05:42.173Z,43.07
2022-08-20T07:07:18.147Z,44.53
2022-08-20T07:08:51.276Z,45.27
2022-08-20T07:10:25.788Z,47.43
2022-08-20T07:11:58.945Z,48.27
2022-08-20T07:13:32.304Z,49.10
2022-08-20T07:15:06.261Z,48.23
2022-08-20T07:16:40.793Z,53.50
2022-08-20T07:18:14.945Z,52.73
2022-08-20T07:19:48.313Z,51.57
2022-08-20T07:21:21.477Z,52.17
2022-08-20T07:22:54.682Z,50.23
2022-08-20T07:24:32.844Z,56.43
2022-08-20T07:26:08.110Z,54.40
2022-08-20T07:27:41.581Z,53.93
2022-08-20T07:29:14.804Z,56.50
2022-08-20T07:31:12.228Z,54.63
2022-08-20T07:32:47.573Z,50.70
2022-08-20T07:34:20.901Z,54.10
2022-08-20T07:35:54.048Z,54.53
2022-08-20T07:37:27.260Z,55.43
2022-08-20T07:39:05.920Z,57.00
2022-08-20T07:40:39.312Z,53.80
2022-08-20T07:42:12.844Z,54.47
2022-08-20T07:43:46.498Z,54.87
2022-08-20T07:45:20.659Z,58.13
2022-08-20T07:46:53.797Z,50.93
2022-08-20T07:48:32.043Z,52.80
2022-08-20T07:50:06.987Z,58.40
2022-08-20T07:51:40.355Z,52.67
2022-08-20T07:53:13.504Z,50.47
2022-08-20T07:54:46.763Z,52.57
2022-08-20T07:56:22.744Z,45.07
2022-08-20T07:58:00.311Z,43.20
2022-08-20T07:59:33.611Z,47.23
2022-08-20T08:01:08.106Z,46.23
2022-08-20T08:02:41.785Z,44.50
2022-08-20T08:04:16.882Z,42.37
2022-08-20T08:05:52.056Z,40.77
2022-08-20T08:07:26.410Z,42.23
2022-08-20T08:09:04.407Z,43.27
2022-08-20T08:10:38.160Z,39.23
2022-08-20T08:12:13.166Z,46.47
2022-08-20T08:13:47.177Z,46.67
2022-08-20T08:15:24.953Z,46.03
2022-08-20T08:17:01.043Z,43.77
2022-08-20T08:18:39.663Z,46.93
2022-08-20T08:20:14.540Z,44.10
2022-08-20T08:21:47.820Z,46.27
2022-08-20T08:23:25.481Z,47.30
2022-08-20T08:25:06.316Z,46.47
2022-08-20T08:26:39.825Z,47.93
2022-08-20T08:28:14.259Z,49.33
2022-08-20T08:29:49.758Z,48.37
2022-08-20T08:31:25.620Z,47.83
2022-08-20T08:33:16.562Z,47.23
2022-08-20T08:34:49.747Z,50.53
2022-08-20T08:36:27.062Z,59.63
2022-08-20T08:38:02.181Z,56.40
2022-08-20T08:39:35.464Z,61.40
2022-08-20T08:41:16.652Z,57.97
2022-08-20T08:42:55.974Z,58.97
2022-08-20T08:44:35.036Z,61.83
2022-08-20T08:46:12.019Z,60.33
2022-08-20T08:47:46.631Z,60.43
2022-08-20T08:49:24.708Z,62.13
2022-08-20T08:51:12.847Z,59.67
2022-08-20T08:52:49.333Z,63.83
2022-08-20T08:54:25.851Z,60.53
2022-08-20T08:55:59.893Z,61.03
2022-08-20T08:57:33.777Z,58.37
2022-08-20T08:59:09.576Z,57.00
2022-08-20T09:00:52.701Z,62.37
2022-08-20T09:02:31.586Z,55.97
2022-08-20T09:04:05.958Z,63.40
2022-08-20T09:05:45.598Z,53.50
2022-08-20T09:07:19.209Z,56.93
2022-08-20T09:08:59.135Z,52.83
2022-08-20T09:10:31.313Z,52.20
2022-08-20T09:12:08.241Z,57.53
2022-08-20T09:13:43.137Z,56.27
2022-08-20T09:15:16.624Z,55.13
2022-08-20T09:16:52.629Z,54.23
2022-08-20T09:18:26.555Z,57.57
2022-08-20T09:19:59.728Z,62.63
2022-08-20T09:21:32.869Z,60.13
2022-08-20T09:23:07.021Z,60.30
2022-08-20T09:24:42.609Z,64.37
2022-08-20T09:26:15.836Z,62.93
2022-08-20T09:27:49.026Z,63.80
2022-08-20T09:29:24.133Z,59.77
2022-08-20T09:30:57.507Z,59.63
2022-08-20T09:32:31.606Z,58.40
2022-08-20T09:34:06.274Z,59.23
2022-08-20T09:35:40.167Z,58.63
2022-08-20T09:37:13.521Z,63.00
2022-08-20T09:38:47.129Z,60.67
2022-08-20T09:40:22.033Z,62.80
2022-08-20T09:41:55.202Z,64.27
2022-08-20T09:43:28.559Z,64.77
2022-08-20T09:45:02.001Z,59.93
2022-08-20T09:46:35.142Z,61.40
2022-08-20T09:48:10.407Z,65.07
2022-08-20T09:49:43.975Z,60.90
2022-08-20T09:51:17.191Z,66.57
2022-08-20T09:52:53.710Z,58.43
2022-08-20T09:54:30.020Z,59.60
2022-08-20T09:56:05.072Z,58.00
2022-08-20T09:57:38.489Z,60.20
2022-08-20T09:59:11.673Z,59.93
2022-08-20T10:00:44.898Z,62.27
2022-08-20T10:02:18.053Z,55.47
2022-08-20T10:03:51.967Z,56.03
2022-08-20T10:05:25.272Z,55.30
2022-08-20T10:06:59.513Z,57.20
2022-08-20T10:08:32.623Z,56.57
2022-08-20T10:10:07.417Z,53.17
2022-08-20T10:11:42.227Z,57.20
2022-08-20T10:13:15.533Z,56.47
2022-08-20T10:14:49.546Z,55.57
2022-08-20T10:16:23.390Z,54.27
2022-08-20T10:17:57.630Z,55.07
2022-08-20T10:19:32.190Z,57.57
2022-08-20T10:21:10.495Z,58.50
2022-08-20T10:22:43.780Z,62.87
2022-08-20T10:24:16.895Z,65.73
2022-08-20T10:25:50.278Z,67.27
2022-08-20T10:27:24.818Z,66.40
2022-08-20T10:28:58.241Z,72.40
2022-08-20T10:30:31.410Z,63.37
2022-08-20T10:32:13.472Z,66.40
2022-08-20T10:33:46.604Z,67.63
2022-08-20T10:35:20.228Z,65.80
2022-08-20T10:36:53.490Z,71.60
2022-08-20T10:38:26.621Z,76.17
2022-08-20T10:39:59.779Z,74.47
2022-08-20T10:41:31.948Z,79.37
2022-08-20T10:43:06.420Z,75.23
2022-08-20T10:44:39.803Z,77.17
2022-08-20T10:46:13.072Z,80.27
2022-08-20T10:47:46.789Z,71.07
2022-08-20T10:49:19.894Z,78.33
2022-08-20T10:50:53.945Z,80.60
2022-08-20T10:52:28.371Z,77.40
2022-08-20T10:54:01.559Z,83.20
2022-08-20T10:55:34.746Z,78.60
2022-08-20T10:57:06.988Z,79.47
2022-08-20T10:58:41.572Z,74.47
2022-08-20T11:00:17.082Z,73.20
2022-08-20T11:01:50.310Z,107.43
2022-08-20T11:03:23.641Z,83.77
2022-08-20T11:04:57.039Z,77.17
2022-08-20T11:06:30.276Z,77.03
2022-08-20T11:08:05.217Z,81.53
2022-08-20T11:09:38.555Z,75.03
2022-08-20T11:11:11.750Z,73.33
2022-08-20T11:12:46.125Z,72.93
2022-08-20T11:14:21.008Z,66.00
2022-08-20T11:15:54.238Z,70.83
2022-08-20T11:17:30.558Z,69.43
2022-08-20T11:19:03.734Z,70.03
2022-08-20T11:20:37.056Z,75.90
2022-08-20T11:22:11.528Z,75.57
2022-08-20T11:23:44.673Z,71.23
2022-08-20T11:25:18.000Z,71.60
2022-08-20T11:26:53.273Z,72.73
2022-08-20T11:28:31.928Z,73.20
2022-08-20T11:30:10.516Z,77.67
2022-08-20T11:31:44.085Z,77.67
2022-08-20T11:33:17.526Z,75.07
2022-08-20T11:34:54.644Z,68.50
2022-08-20T11:36:27.896Z,68.53
2022-08-20T11:38:01.720Z,74.20
2022-08-20T11:39:37.476Z,68.17
2022-08-20T11:41:14.565Z,69.40
2022-08-20T11:43:10.996Z,68.57
2022-08-20T11:44:40.891Z,71.67
2022-08-20T11:46:15.552Z,76.27
2022-08-20T11:47:48.798Z,75.93
2022-08-20T11:49:22.011Z,71.67
2022-08-20T11:50:55.204Z,75.10
2022-08-20T11:52:29.348Z,75.20
2022-08-20T11:54:03.479Z,74.43
2022-08-20T11:55:37.228Z,77.53
2022-08-20T11:57:11.848Z,73.70
2022-08-20T11:58:46.948Z,75.30
2022-08-20T12:00:32.032Z,73.77
2022-08-20T12:02:12.181Z,70.87
2022-08-20T12:03:45.697Z,73.23
2022-08-20T12:05:19.444Z,72.97
2022-08-20T12:06:52.592Z,65.70
2022-08-20T12:08:27.392Z,68.67
2022-08-20T12:10:01.457Z,71.00
2022-08-20T12:11:34.760Z,62.97
2022-08-20T12:13:08.558Z,61.67
2022-08-20T12:14:41.883Z,61.23
2022-08-20T12:16:15.035Z,67.27
2022-08-20T12:17:49.579Z,60.87
2022-08-20T12:19:22.737Z,57.13
2022-08-20T12:20:56.596Z,59.17
2022-08-20T12:22:29.704Z,56.13
2022-08-20T12:24:02.841Z,53.90
2022-08-20T12:25:35.993Z,56.63
2022-08-20T12:27:12.342Z,54.33
2022-08-20T12:28:45.544Z,55.53
2022-08-20T12:30:23.613Z,55.13
2022-08-20T12:31:56.738Z,56.50
2022-08-20T12:33:31.405Z,56.47
2022-08-20T12:35:05.552Z,53.27
2022-08-20T12:36:38.836Z,54.33
2022-08-20T12:38:12.051Z,51.77
2022-08-20T12:39:48.885Z,49.80
2022-08-20T12:41:22.591Z,45.67
2022-08-20T12:42:56.105Z,48.07
2022-08-20T12:44:31.169Z,48.13
2022-08-20T12:46:04.581Z,49.77
2022-08-20T12:47:40.185Z,43.23
2022-08-20T12:49:14.774Z,45.20
2022-08-20T12:50:49.886Z,43.40
2022-08-20T12:52:24.850Z,45.03
2022-08-20T12:53:58.595Z,43.73
2022-08-20T12:55:32.519Z,41.43
2022-08-20T12:57:08.120Z,40.77
2022-08-20T12:58:41.567Z,40.20
2022-08-20T13:00:15.824Z,39.20
2022-08-20T13:01:49.024Z,39.67
2022-08-20T13:03:22.163Z,40.83
2022-08-20T13:04:55.756Z,38.77
2022-08-20T13:06:31.395Z,35.27
2022-08-20T13:08:08.284Z,34.87
2022-08-20T13:09:41.887Z,38.00
2022-08-20T13:11:15.086Z,37.93
2022-08-20T13:12:48.580Z,37.00
2022-08-20T13:14:21.750Z,37.70
2022-08-20T13:15:54.821Z,35.50
2022-08-20T13:17:38.467Z,36.60
2022-08-20T13:19:12.811Z,33.93
2022-08-20T13:20:48.021Z,37.67
2022-08-20T13:22:21.179Z,36.37
2022-08-20T13:23:54.416Z,36.57
2022-08-20T13:25:27.779Z,37.83
2022-08-20T13:27:08.950Z,33.80
2022-08-20T13:28:42.265Z,37.00
2022-08-20T13:30:18.982Z,36.23
2022-08-20T13:31:52.171Z,36.00
2022-08-20T13:33:26.568Z,36.37
2022-08-20T13:34:59.893Z,36.20
2022-08-20T13:36:34.676Z,36.37
2022-08-20T13:38:07.917Z,37.27
2022-08-20T13:39:42.236Z,37.37
2022-08-20T13:41:15.466Z,35.00
2022-08-20T13:42:48.614Z,34.63
2022-08-20T13:44:21.756Z,34.63
2022-08-20T13:46:06.629Z,31.67
2022-08-20T13:47:41.412Z,32.97
2022-08-20T13:49:14.796Z,33.63
2022-08-20T13:50:48.037Z,30.93
2022-08-20T13:52:22.619Z,33.53
2022-08-20T13:53:57.013Z,34.17
2022-08-20T13:55:30.685Z,37.20
2022-08-20T13:57:09.475Z,36.73
2022-08-20T13:58:42.727Z,38.67
2022-08-20T14:00:20.348Z,41.87
2022-08-20T14:01:53.505Z,40.20
2022-08-20T14:03:26.694Z,43.23
2022-08-20T14:05:00.342Z,37.10
2022-08-20T14:06:33.924Z,37.40
2022-08-20T14:08:11.625Z,38.97
2022-08-20T14:09:46.953Z,38.27
2022-08-20T14:11:20.367Z,33.53
2022-08-20T14:12:53.636Z,29.30
2022-08-20T14:14:26.913Z,30.17
2022-08-20T14:16:00.027Z,26.33
2022-08-20T14:17:35.528Z,24.20
2022-08-20T14:19:08.689Z,25.17
2022-08-20T14:20:42.742Z,24.77
2022-08-20T14:22:19.733Z,22.67
2022-08-20T14:23:55.787Z,21.67
2022-08-20T14:25:29.806Z,24.13
2022-08-20T14:27:05.087Z,25.47
2022-08-20T14:28:39.201Z,26.27
2022-08-20T14:30:14.956Z,29.27
2022-08-20T14:31:48.073Z,28.13
2022-08-20T14:33:21.391Z,32.23
2022-08-20T14:34:54.764Z,32.37
2022-08-20T14:36:27.993Z,31.20
2022-08-20T14:38:01.155Z,30.53
2022-08-20T14:39:36.068Z,31.43
2022-08-20T14:41:09.168Z,33.47
2022-08-20T14:42:43.452Z,29.93
2022-08-20T14:44:20.839Z,26.20
2022-08-20T14:45:53.998Z,26.03
2022-08-20T14:47:30.606Z,24.80
2022-08-20T14:49:03.800Z,19.17
2022-08-20T14:50:37.264Z,18.73
2022-08-20T14:52:09.641Z,19.13
2022-08-20T14:53:42.754Z,24.70
2022-08-20T14:55:20.323Z,23.43
2022-08-20T14:56:53.453Z,23.80
2022-08-20T14:58:26.989Z,24.03
2022-08-20T15:00:00.330Z,23.30
2022-08-20T15:01:33.597Z,17.53
2022-08-20T15:03:06.819Z,18.70
2022-08-20T15:04:41.135Z,18.03
2022-08-20T15:06:21.804Z,18.67
2022-08-20T15:07:57.209Z,16.13
2022-08-20T15:09:31.922Z,14.40
2022-08-20T15:11:07.488Z,12.40
2022-08-20T15:12:43.193Z,13.83
2022-08-20T15:14:18.433Z,14.07
2022-08-20T15:15:52.720Z,14.33
2022-08-20T15:17:28.042Z,15.47
2022-08-20T15:19:01.536Z,15.77
2022-08-20T15:20:36.130Z,16.17
2022-08-20T15:22:09.292Z,16.57
2022-08-20T15:23:42.459Z,17.80
2022-08-20T15:25:18.605Z,17.53
2022-08-20T15:26:53.200Z,18.17
2022-08-20T15:28:26.344Z,18.17
2022-08-20T15:29:58.537Z,18.37
2022-08-20T15:31:31.952Z,17.63
2022-08-20T15:33:05.298Z,18.37
2022-08-20T15:34:39.457Z,18.27
2022-08-20T15:36:12.767Z,19.13
2022-08-20T15:37:47.983Z,19.77
2022-08-20T15:39:21.110Z,19.80
2022-08-20T15:40:54.222Z,19.77
2022-08-20T15:42:27.785Z,18.87
2022-08-20T15:44:00.900Z,20.27
2022-08-20T15:45:35.500Z,20.63
2022-08-20T15:47:22.194Z,20.37
2022-08-20T15:48:55.904Z,20.90
2022-08-20T15:50:45.223Z,20.20
2022-08-20T15:52:19.121Z,21.70
2022-08-20T15:54:00.336Z,21.17
2022-08-20T15:55:34.674Z,21.87
2022-08-20T15:57:13.578Z,21.20
2022-08-20T15:58:55.014Z,22.73
2022-08-20T16:00:35.428Z,23.33
2022-08-20T16:02:25.872Z,24.00
2022-08-20T16:04:26.868Z,24.10
2022-08-20T16:06:04.024Z,24.67
2022-08-20T16:07:49.761Z,29.07
2022-08-20T16:09:40.378Z,29.50
2022-08-20T16:11:23.124Z,32.23
2022-08-20T16:12:59.807Z,27.73
2022-08-20T16:14:39.060Z,28.57
2022-08-20T16:16:17.552Z,27.63
2022-08-20T16:17:59.161Z,28.10
2022-08-20T16:19:38.398Z,31.30
2022-08-20T16:21:14.925Z,33.20
2022-08-20T16:22:48.484Z,31.07
2022-08-20T16:24:22.359Z,28.43
2022-08-20T16:26:03.908Z,28.40
2022-08-20T16:27:46.605Z,29.13
2022-08-20T16:29:25.354Z,28.20
2022-08-20T16:31:04.913Z,29.70
2022-08-20T16:32:43.089Z,30.57
2022-08-20T16:34:33.415Z,31.83
2022-08-20T16:36:11.977Z,31.07
2022-08-20T16:37:52.492Z,31.17
2022-08-20T16:39:28.342Z,33.07
2022-08-20T16:41:08.190Z,32.30
2022-08-20T16:42:44.701Z,34.07
2022-08-20T16:44:28.806Z,34.67
2022-08-20T16:46:06.716Z,35.03
2022-08-20T16:47:41.364Z,33.07
2022-08-20T16:49:15.382Z,34.00
2022-08-20T16:50:59.501Z,36.90
2022-08-20T16:52:32.690Z,35.63
2022-08-20T16:54:06.508Z,38.30
2022-08-20T16:55:41.978Z,37.90
2022-08-20T16:57:17.531Z,37.27
2022-08-20T16:58:50.791Z,37.17
2022-08-20T17:00:29.435Z,37.40
2022-08-20T17:02:10.431Z,36.60
2022-08-20T17:03:51.223Z,37.77
2022-08-20T17:05:27.809Z,39.40
2022-08-20T17:07:03.535Z,40.87
2022-08-20T17:08:49.754Z,42.00
2022-08-20T17:10:26.377Z,42.13
2022-08-20T17:12:15.653Z,42.50
2022-08-20T17:13:49.562Z,43.43
2022-08-20T17:15:26.713Z,46.30
2022-08-20T17:16:59.873Z,45.70
2022-08-20T17:18:36.664Z,41.90
2022-08-20T17:20:16.354Z,41.43
2022-08-20T17:21:54.057Z,42.20
2022-08-20T17:23:27.725Z,43.47
2022-08-20T17:25:00.889Z,45.70
2022-08-20T17:26:36.487Z,47.17
2022-08-20T17:28:17.279Z,50.73
2022-08-20T17:29:53.442Z,51.23
2022-08-20T17:31:38.756Z,37.97
2022-08-20T17:33:24.648Z,37.13
2022-08-20T17:35:01.846Z,36.60
2022-08-20T17:36:35.155Z,41.47
2022-08-20T17:38:08.358Z,46.43
2022-08-20T17:39:48.368Z,49.77
2022-08-20T17:41:24.848Z,42.43
2022-08-20T17:43:01.604Z,43.43
2022-08-20T17:44:38.392Z,46.57
2022-08-20T17:46:16.626Z,43.27
2022-08-20T17:47:50.362Z,42.63
2022-08-20T17:49:34.996Z,38.57
2022-08-20T17:51:17.445Z,41.73
2022-08-20T17:52:53.729Z,41.80
2022-08-20T17:54:32.579Z,40.73
2022-08-20T17:56:19.399Z,42.17
2022-08-20T17:57:57.975Z,37.90
2022-08-20T17:59:59.709Z,38.63
2022-08-20T18:01:28.197Z,38.03
2022-08-20T18:03:07.333Z,35.87
2022-08-20T18:04:40.891Z,37.73
2022-08-20T18:06:25.334Z,37.87
2022-08-20T18:08:12.694Z,41.10
2022-08-20T18:09:51.575Z,41.00
2022-08-20T18:11:34.140Z,41.20
2022-08-20T18:13:13.133Z,42.63
2022-08-20T18:14:59.561Z,42.83
2022-08-20T18:16:47.259Z,41.80
2022-08-20T18:18:29.638Z,41.83
2022-08-20T18:20:25.031Z,41.80
2022-08-20T18:22:09.824Z,40.27
2022-08-20T18:23:47.743Z,38.63
2022-08-20T18:25:34.494Z,38.40
2022-08-20T18:27:12.764Z,39.57
2022-08-20T18:28:49.677Z,39.23
2022-08-20T18:30:25.738Z,38.27
2022-08-20T18:32:01.083Z,41.63
2022-08-20T18:33:37.620Z,42.30
2022-08-20T18:35:13.518Z,43.83
2022-08-20T18:36:56.081Z,37.73
2022-08-20T18:38:34.486Z,41.40
2022-08-20T18:40:15.882Z,38.00
2022-08-20T18:41:58.709Z,41.23
2022-08-20T18:43:32.245Z,38.87
2022-08-20T18:45:07.314Z,42.97
2022-08-20T18:46:53.448Z,41.37
2022-08-20T18:48:26.664Z,40.23
2022-08-20T18:50:06.429Z,37.70
2022-08-20T18:51:51.680Z,40.03
2022-08-20T18:53:33.724Z,40.77
2022-08-20T18:55:12.973Z,40.27
2022-08-20T18:56:46.093Z,37.60
2022-08-20T18:58:31.179Z,37.23
2022-08-20T19:00:11.811Z,40.43
2022-08-20T19:01:48.457Z,40.33
2022-08-20T19:03:27.303Z,38.90
2022-08-20T19:05:03.354Z,38.63
2022-08-20T19:06:42.613Z,39.57
2022-08-20T19:08:22.114Z,36.47
2022-08-20T19:10:24.149Z,41.17
2022-08-20T19:12:21.889Z,47.70
2022-08-20T19:14:34.838Z,42.47
2022-08-20T19:16:12.719Z,39.60
2022-08-20T19:18:03.195Z,43.30
2022-08-20T19:19:35.551Z,41.70
2022-08-20T19:21:15.782Z,40.70
2022-08-20T19:22:51.365Z,44.83
2022-08-20T19:24:27.822Z,43.97
2022-08-20T19:26:05.629Z,47.73
2022-08-20T19:27:47.848Z,44.40
2022-08-20T19:29:26.372Z,45.83
2022-08-20T19:31:10.614Z,46.83
2022-08-20T19:32:52.892Z,46.40
2022-08-20T19:34:26.912Z,46.20
2022-08-20T19:36:11.817Z,42.20
2022-08-20T19:37:50.966Z,43.47
2022-08-20T19:39:26.126Z,43.90
2022-08-20T19:41:11.460Z,40.43
2022-08-20T19:42:45.588Z,42.57
2022-08-20T19:44:31.965Z,48.10
2022-08-20T19:46:05.448Z,41.77
2022-08-20T19:47:47.249Z,43.33
2022-08-20T19:49:28.459Z,43.93
2022-08-20T19:51:07.384Z,41.30
2022-08-20T19:53:02.960Z,47.17
2022-08-20T19:54:46.310Z,50.43
2022-08-20T19:56:21.258Z,47.97
2022-08-20T19:57:56.391Z,49.03
2022-08-20T19:59:31.069Z,47.80
2022-08-20T20:01:06.271Z,48.73
2022-08-20T20:02:41.553Z,47.00
2022-08-20T20:04:18.816Z,39.23
2022-08-20T20:05:55.643Z,46.47
2022-08-20T20:07:40.733Z,45.97
2022-08-20T20:09:19.523Z,44.20
2022-08-20T20:10:55.810Z,45.40
2022-08-20T20:12:34.447Z,40.97
2022-08-20T20:14:10.550Z,40.20
2022-08-20T20:15:44.932Z,43.40
2022-08-20T20:17:23.371Z,43.63
2022-08-20T20:19:22.654Z,43.10
2022-08-20T20:20:57.732Z,45.73
2022-08-20T20:22:34.377Z,45.80
2022-08-20T20:24:08.241Z,43.23
2022-08-20T20:25:45.053Z,42.97
2022-08-20T20:27:23.206Z,45.70
2022-08-20T20:32:24.136Z,45.30
2022-08-20T20:33:59.337Z,46.87
2022-08-20T20:35:36.168Z,46.80
2022-08-20T20:37:12.511Z,48.93
2022-08-20T20:38:55.125Z,53.33
2022-08-20T20:40:33.736Z,49.33
2022-08-20T20:42:11.630Z,51.83
2022-08-20T20:43:43.789Z,51.57